Time;durP1;ratioP1;P1;durP2;ratioP2;P2;SDS_P1;SDS_P2;PMS_P1;PMS_P2;Temp;Humidity;BMP_temperature;BMP_pressure;BME280_temperature;BME280_humidity;BME280_pressure;Samples;Min_cycle;Max_cycle;Signal;HPM_P1;HPM_P2
2024/02/18 08:19:23;;;;;;;;;2.50;1.33;;;;;17.60;52.89;102844.44;2027666;27;2735647;-68
2024/02/18 08:20:35;;;;;;;;;3.33;2.67;;;;;17.73;52.51;102845.81;2022891;27;2754852;-68
2024/02/18 08:21:48;;;;;;;;;4.17;2.83;;;;;17.95;52.14;102839.84;2059364;27;2748217;-68
2024/02/18 08:23:01;;;;;;;;;2.00;1.33;;;;;18.16;51.96;102832.13;2036202;27;2750780;-68
2024/02/18 08:24:12;;;;;;;;;2.33;2.00;;;;;18.36;51.74;102827.97;2033245;27;2752340;-68
2024/02/18 08:25:23;;;;;;;;;1.00;1.00;;;;;18.55;51.21;102836.22;2059171;27;2725262;-68
2024/02/18 08:26:36;;;;;;;;;3.83;3.33;;;;;18.73;51.14;102840.97;2051740;27;2754427;-68
2024/02/18 08:27:46;;;;;;;;;3.00;3.00;;;;;18.92;50.92;102841.19;2011199;27;2746097;-68
2024/02/18 08:28:57;;;;;;;;;4.33;2.00;;;;;19.07;50.77;102841.56;2057585;27;2731574;-68
2024/02/18 08:30:09;;;;;;;;;3.33;3.33;;;;;19.23;50.25;102860.59;2033699;27;2754566;-68
2024/02/18 08:31:25;;;;;;;;;0.67;0.67;;;;;19.36;49.91;102846.81;2058838;27;2737731;-66
2024/02/18 08:32:38;;;;;;;;;3.33;2.00;;;;;19.49;49.84;102839.19;2011614;27;2754538;-68
2024/02/18 08:33:51;;;;;;;;;3.67;2.17;;;;;19.62;49.68;102827.16;2062175;27;2727367;-68
2024/02/18 08:35:01;;;;;;;;;4.67;3.00;;;;;19.74;49.56;102824.94;2008677;27;3459671;-68
2024/02/18 08:36:13;;;;;;;;;5.00;4.00;;;;;19.84;49.32;102820.97;2043304;27;2754495;-68
2024/02/18 08:37:23;;;;;;;;;5.00;2.00;;;;;19.93;49.03;102811.72;2038720;27;2754451;-68
2024/02/18 08:38:35;;;;;;;;;3.00;3.00;;;;;20.04;49.06;102813.97;2050161;27;2749227;-68
2024/02/18 08:39:48;;;;;;;;;2.00;2.00;;;;;20.11;48.76;102804.81;2056598;27;2747139;-71
2024/02/18 08:40:59;;;;;;;;;5.33;2.00;;;;;20.19;48.42;102803.63;2005997;27;2752426;-68
2024/02/18 08:42:10;;;;;;;;;3.00;3.00;;;;;20.26;48.30;102804.25;2042590;27;2750341;-68
2024/02/18 08:43:21;;;;;;;;;5.00;3.25;;;;;20.31;48.30;102805.81;2057535;27;2738830;-67
2024/02/18 08:44:32;;;;;;;;;3.00;3.00;;;;;20.39;48.28;102796.59;2030300;27;2754949;-68
2024/02/18 08:45:45;;;;;;;;;3.00;3.00;;;;;20.45;48.08;102807.88;2057043;27;2747133;-68
2024/02/18 08:46:55;;;;;;;;;3.00;3.00;;;;;20.51;48.00;102813.91;2032096;27;2754580;-68
2024/02/18 08:48:07;;;;;;;;;2.00;2.00;;;;;20.56;48.00;102815.44;2055829;27;2737786;-70
2024/02/18 08:49:20;;;;;;;;;3.00;2.00;;;;;20.63;47.83;102815.16;2033319;27;2749216;-69
2024/02/18 08:50:33;;;;;;;;;2.33;2.33;;;;;20.66;47.73;102815.91;2031040;27;2737761;-70
2024/02/18 08:51:46;;;;;;;;;1.67;1.67;;;;;20.73;47.47;102815.63;2034923;27;2729437;-69
2024/02/18 08:53:00;;;;;;;;;2.00;2.00;;;;;20.77;47.46;102820.78;2033946;27;2733610;-67
2024/02/18 08:54:13;;;;;;;;;2.83;2.33;;;;;20.82;47.37;102825.91;2032885;27;2746121;-69
2024/02/18 08:55:23;;;;;;;;;2.00;2.00;;;;;20.89;47.49;102832.72;2006006;27;2746083;-69
2024/02/18 08:56:34;;;;;;;;;3.67;3.67;;;;;20.95;47.32;102825.38;2048181;27;2746122;-69
2024/02/18 08:57:45;;;;;;;;;6.33;3.33;;;;;20.99;46.94;102827.00;2031815;27;2744055;-68
2024/02/18 08:58:56;;;;;;;;;3.00;3.00;;;;;21.04;47.47;102827.66;2057690;27;2737823;-69
2024/02/18 09:00:07;;;;;;;;;2.00;2.00;;;;;21.08;47.02;102823.94;2008335;27;2754552;-69
2024/02/18 09:01:19;;;;;;;;;4.00;2.67;;;;;21.12;46.85;102833.56;2032096;27;3464929;-67
2024/02/18 09:02:30;;;;;;;;;4.00;3.00;;;;;21.17;46.82;102829.78;2032068;27;2754617;-68
2024/02/18 09:03:41;;;;;;;;;2.67;2.67;;;;;21.20;46.67;102827.88;2057469;27;2754451;-71
2024/02/18 09:04:51;;;;;;;;;4.33;2.33;;;;;21.23;47.09;102830.41;2007699;27;2744038;-69
2024/02/18 09:06:02;;;;;;;;;2.00;2.00;;;;;21.27;46.78;102841.81;2046882;27;2754524;-70
2024/02/18 09:07:13;;;;;;;;;3.33;3.33;;;;;21.30;46.68;102840.81;2044963;27;2754427;-68
2024/02/18 09:08:24;;;;;;;;;3.00;3.00;;;;;21.32;46.45;102854.97;2050052;27;2754564;-68
2024/02/18 09:09:35;;;;;;;;;4.00;3.00;;;;;21.35;46.87;102844.16;2051570;27;2750313;-68
2024/02/18 09:10:45;;;;;;;;;3.67;3.33;;;;;21.38;46.93;102851.16;2009383;27;2754553;-70
2024/02/18 09:11:56;;;;;;;;;3.00;3.00;;;;;21.40;46.22;102858.19;2042399;27;2752383;-69
2024/02/18 09:13:07;;;;;;;;;3.33;3.00;;;;;21.44;46.17;102864.25;2043115;27;2754558;-69
2024/02/18 09:14:19;;;;;;;;;1.00;1.00;;;;;21.45;46.47;102872.22;2059535;27;2738800;-70
2024/02/18 09:15:30;;;;;;;;;3.00;3.00;;;;;21.49;46.25;102878.28;2028657;27;3470032;-70
2024/02/18 09:16:43;;;;;;;;;2.00;1.83;;;;;21.50;46.23;102872.00;2055575;27;2733670;-68
2024/02/18 09:17:56;;;;;;;;;1.00;1.00;;;;;21.52;46.19;102871.91;2035325;27;2728937;-69
2024/02/18 09:19:10;;;;;;;;;2.33;2.33;;;;;21.53;45.81;102863.81;2031051;27;2739902;-68
2024/02/18 09:20:20;;;;;;;;;4.00;3.00;;;;;21.55;46.06;102867.31;2010022;27;2744065;-70
2024/02/18 09:21:31;;;;;;;;;2.33;2.33;;;;;21.56;46.23;102879.72;2047596;27;2740907;-71
2024/02/18 09:22:42;;;;;;;;;2.00;2.00;;;;;21.58;46.23;102864.47;2057855;27;2731009;-73
2024/02/18 09:23:52;;;;;;;;;3.00;3.00;;;;;21.59;45.92;102863.53;2008549;27;2754585;-70
2024/02/18 09:25:03;;;;;;;;;4.00;2.00;;;;;21.61;46.16;102870.66;2056921;27;2729443;-70
2024/02/18 09:26:14;;;;;;;;;2.00;2.00;;;;;21.59;45.92;102855.50;2033265;27;2749270;-70
2024/02/18 09:27:25;;;;;;;;;6.67;4.00;;;;;21.61;45.96;102860.78;2045602;27;2741995;-70
2024/02/18 09:28:36;;;;;;;;;2.00;2.00;;;;;21.61;45.53;102867.97;2039877;27;3466969;-72
2024/02/18 09:29:50;;;;;;;;;2.17;2.17;;;;;21.59;45.80;102868.91;2052994;27;2736748;-71
2024/02/18 09:31:02;;;;;;;;;3.00;3.00;;;;;21.60;45.94;102861.75;1996435;28;2752352;-71
2024/02/18 09:32:12;;;;;;;;;2.00;2.00;;;;;21.59;45.48;102858.19;2023306;27;2744074;-69
2024/02/18 09:33:23;;;;;;;;;1.00;1.00;;;;;21.61;45.52;102867.97;2051483;27;2741964;-71
2024/02/18 09:34:34;;;;;;;;;4.00;3.00;;;;;21.61;46.07;102870.66;2008665;28;2754582;-71
2024/02/18 09:35:45;;;;;;;;;4.00;3.00;;;;;21.62;45.59;102867.88;2029854;28;2738902;-70
2024/02/18 09:36:56;;;;;;;;;1.00;1.00;;;;;21.64;45.69;102865.13;2051876;28;2735180;-70
2024/02/18 09:38:09;;;;;;;;;3.67;2.83;;;;;21.65;45.54;102867.75;2030020;28;2736751;-68
2024/02/18 09:39:20;;;;;;;;;3.00;2.33;;;;;21.66;45.89;102868.59;1995509;28;2750817;-72
2024/02/18 09:40:31;;;;;;;;;2.33;2.00;;;;;21.67;45.66;102870.34;2040971;28;2741963;-72
2024/02/18 09:41:45;;;;;;;;;2.00;2.00;;;;;21.68;45.33;102864.06;2051972;28;2729199;-72
2024/02/18 09:42:59;;;;;;;;;2.17;2.00;;;;;21.68;45.10;102861.38;2051760;27;2738836;-70
2024/02/18 09:44:10;;;;;;;;;2.33;2.33;;;;;21.68;45.27;102859.56;2002213;28;2750300;-70
2024/02/18 09:45:28;;;;;;;;;6.00;3.67;;;;;21.67;45.55;102847.13;2029616;28;2737781;-71
2024/02/18 09:46:41;;;;;;;;;2.67;2.67;;;;;21.69;45.09;102855.97;2027147;27;2744017;-71
2024/02/18 09:47:56;;;;;;;;;2.00;2.00;;;;;21.69;45.11;102841.69;2052628;27;2740918;-71
2024/02/18 09:49:11;;;;;;;;;2.00;1.67;;;;;21.68;44.86;102835.47;2030120;28;2728402;-71
2024/02/18 09:50:26;;;;;;;;;2.17;2.17;;;;;21.68;45.49;102842.66;2029244;28;2737795;-71
2024/02/18 09:51:39;;;;;;;;;3.50;2.00;;;;;21.68;45.43;102834.63;2030030;28;2733634;-70
2024/02/18 09:52:50;;;;;;;;;2.00;2.00;;;;;21.68;45.21;102823.94;2004991;28;2737784;-70
2024/02/18 09:54:04;;;;;;;;;2.20;2.20;;;;;21.67;45.03;102812.34;2047325;27;2739288;-71
2024/02/18 09:55:18;;;;;;;;;2.00;2.00;;;;;21.67;45.21;102811.47;2030416;27;2729435;-69
2024/02/18 09:56:31;;;;;;;;;2.83;2.83;;;;;21.67;45.19;102806.13;2033861;27;2735694;-70
2024/02/18 09:57:41;;;;;;;;;5.00;3.00;;;;;21.67;44.88;102800.78;2001136;28;2739204;-69
2024/02/18 09:58:53;;;;;;;;;2.00;2.00;;;;;21.67;45.36;102795.41;2052348;28;2737801;-69
2024/02/18 10:00:10;;;;;;;;;2.00;2.00;;;;;21.68;45.32;102802.53;2030040;28;2732596;-69
2024/02/18 10:01:24;;;;;;;;;2.00;2.00;;;;;21.68;45.13;102802.53;2024843;28;2737796;-69
2024/02/18 10:02:37;;;;;;;;;1.67;1.00;;;;;21.66;45.24;102793.66;2025777;28;2735049;-69
2024/02/18 10:03:49;;;;;;;;;2.33;2.00;;;;;21.67;45.21;102809.69;2001601;28;2738816;-69
2024/02/18 10:05:06;;;;;;;;;4.83;3.00;;;;;21.67;45.21;102806.13;2051225;28;2749228;-68
2024/02/18 10:06:16;;;;;;;;;3.00;2.00;;;;;21.67;45.22;102812.34;2002388;27;2748265;-69
2024/02/18 10:07:27;;;;;;;;;2.00;2.00;;;;;21.67;45.31;102806.13;2044707;28;2731571;-68
2024/02/18 10:08:51;;;;;;;;;2.50;2.50;;;;;21.69;45.10;102804.25;2049944;27;2731519;-69
2024/02/18 10:10:07;;;;;;;;;2.17;2.00;;;;;21.69;45.33;102788.19;2028128;27;2728957;-69
2024/02/18 10:11:21;;;;;;;;;2.00;2.00;;;;;21.70;45.28;102773.88;2024426;28;2738116;-69
2024/02/18 10:12:33;;;;;;;;;4.00;2.00;;;;;21.70;44.80;102776.56;2003248;28;2748270;-68
2024/02/18 10:13:47;;;;;;;;;1.17;1.17;;;;;21.71;45.39;102764.88;2051956;27;2737794;-68
2024/02/18 10:15:03;;;;;;;;;2.00;1.67;;;;;21.72;45.33;102776.47;2021937;28;2732546;-69
2024/02/18 10:16:15;;;;;;;;;4.00;2.33;;;;;21.72;45.39;102771.13;2002633;28;3461707;-70
2024/02/18 10:17:28;;;;;;;;;2.00;2.00;;;;;21.73;45.24;102783.56;2052699;27;2737754;-73
2024/02/18 10:18:43;;;;;;;;;1.50;1.00;;;;;21.73;44.71;102779.06;2031415;27;2727348;-70
2024/02/18 10:19:57;;;;;;;;;2.00;2.00;;;;;21.73;44.76;102773.69;2037943;27;2720101;-70
2024/02/18 10:21:11;;;;;;;;;2.00;2.00;;;;;21.73;44.87;102773.69;2027265;28;2737221;-70
2024/02/18 10:22:25;;;;;;;;;4.00;3.00;;;;;21.73;45.11;102783.56;1988575;28;2740910;-69
2024/02/18 10:23:36;;;;;;;;;2.67;2.67;;;;;21.72;45.15;102792.53;2028851;27;2752459;-69
2024/02/18 10:24:46;;;;;;;;;3.00;3.00;;;;;21.73;44.95;102786.25;2031223;27;2750414;-70
2024/02/18 10:25:59;;;;;;;;;4.00;2.00;;;;;21.73;45.03;102799.63;2036087;28;2747132;-72
2024/02/18 10:27:09;;;;;;;;;2.00;1.67;;;;;21.73;44.78;102795.13;2020654;28;2737762;-73
2024/02/18 10:28:21;;;;;;;;;2.25;2.25;;;;;21.73;45.02;102792.44;2053394;27;2744020;-71
2024/02/18 10:29:36;;;;;;;;;2.00;2.00;;;;;21.73;44.96;102784.41;2057403;27;2735808;-71
2024/02/18 10:30:48;;;;;;;;;4.33;3.00;;;;;21.72;44.88;102779.13;2002892;27;2754571;-70
2024/02/18 10:32:01;;;;;;;;;1.00;1.00;;;;;21.73;45.08;102784.41;2057685;27;2737778;-70
2024/02/18 10:33:14;;;;;;;;;3.67;2.50;;;;;21.73;45.12;102783.56;2033514;27;2748583;-71
2024/02/18 10:34:27;;;;;;;;;1.33;0.33;;;;;21.72;44.82;102785.38;2030382;28;2725297;-69
2024/02/18 10:35:38;;;;;;;;;2.67;2.67;;;;;21.72;44.85;102780.00;2003502;27;2752391;-70
2024/02/18 10:36:56;;;;;;;;;1.00;1.00;;;;;21.71;45.16;102767.56;2058091;27;2730463;-70
2024/02/18 10:38:18;;;;;;;;;2.67;1.50;;;;;21.73;45.11;102773.69;2031128;27;2739885;-70
2024/02/18 10:39:32;;;;;;;;;2.50;2.50;;;;;21.72;45.05;102777.34;2029640;27;2736740;-70
2024/02/18 10:40:52;;;;;;;;;2.17;2.17;;;;;21.73;44.85;102778.22;2032769;27;2737781;-71
2024/02/18 10:42:09;;;;;;;;;2.00;2.00;;;;;21.73;44.92;102767.50;2029495;27;2732566;-70
2024/02/18 10:43:26;;;;;;;;;3.50;2.00;;;;;21.72;44.74;102771.13;2029381;27;2740894;-71
2024/02/18 10:44:41;;;;;;;;;2.00;2.00;;;;;21.73;44.71;102767.50;2008624;27;2740906;-71
2024/02/18 10:45:55;;;;;;;;;3.50;1.83;;;;;21.71;45.26;102770.25;2057152;27;2734662;-70
2024/02/18 10:47:08;;;;;;;;;4.33;3.33;;;;;21.72;44.84;102772.00;2010196;27;2753835;-70
2024/02/18 10:48:24;;;;;;;;;2.33;2.33;;;;;21.72;45.27;102765.75;2060785;27;2736719;-71
2024/02/18 10:49:44;;;;;;;;;2.83;2.83;;;;;21.72;45.09;102774.66;2028866;27;2736799;-70
2024/02/18 10:50:55;;;;;;;;;3.00;2.00;;;;;21.72;44.78;102765.75;2005368;27;2735694;-71
2024/02/18 10:52:09;;;;;;;;;3.00;2.00;;;;;21.71;44.83;102770.25;2052080;28;2732559;-71
2024/02/18 10:53:33;;;;;;;;;2.50;1.83;;;;;21.72;44.89;102765.75;2052695;28;2741928;-71
2024/02/18 10:55:00;;;;;;;;;1.00;1.00;;;;;21.70;45.18;102766.69;2033165;27;2728403;-70
2024/02/18 10:56:21;;;;;;;;;3.33;3.00;;;;;21.69;45.21;102772.13;2010463;27;2746183;-71
2024/02/18 11:22:45;;;;;;;;;3.83;3.83;;;;;19.01;47.20;102779.56;2005017;28;2750920;-74
2024/02/18 11:23:56;;;;;;;;;6.33;5.67;;;;;18.74;47.66;102781.47;1992481;28;2751385;-74
2024/02/18 11:25:07;;;;;;;;;7.33;7.33;;;;;18.45;47.79;102773.53;2026052;28;2732648;-73
2024/02/18 11:26:18;;;;;;;;;13.50;8.00;;;;;18.20;47.86;102764.59;2015224;27;2758602;-74
2024/02/18 11:27:30;;;;;;;;;8.25;7.25;;;;;17.96;48.23;102774.22;2046892;28;1808673;-74
2024/02/18 11:28:41;;;;;;;;;7.00;6.00;;;;;17.70;48.49;102766.16;2006702;28;2745077;-73
2024/02/18 11:29:52;;;;;;;;;6.67;6.67;;;;;17.51;48.96;102773.78;2028942;27;2743003;-74
2024/02/18 11:31:02;;;;;;;;;9.50;8.00;;;;;17.26;48.93;102770.09;1978728;28;2754462;-75
2024/02/18 11:32:14;;;;;;;;;8.00;5.33;;;;;17.05;49.55;102751.16;2028461;28;3461774;-75
2024/02/18 11:33:24;;;;;;;;;9.67;8.00;;;;;16.84;49.80;102764.13;2014152;28;2750365;-76
2024/02/18 11:34:35;;;;;;;;;4.67;4.67;;;;;16.68;50.31;102762.78;2014943;27;2743999;-75
2024/02/18 11:35:46;;;;;;;;;4.00;4.00;;;;;16.47;50.29;102757.16;2009668;27;2743005;-75
2024/02/18 11:36:57;;;;;;;;;6.67;6.00;;;;;16.30;50.76;102759.31;2018942;27;2752447;-75
2024/02/18 11:38:08;;;;;;;;;4.00;4.00;;;;;16.11;51.17;102764.19;2019822;28;2738850;-75
2024/02/18 11:39:29;;;;;;;;;10.67;6.00;;;;;15.89;51.49;102754.06;2027594;28;3484602;-75
2024/02/18 11:40:46;;;;;;;;;7.00;5.00;;;;;15.70;51.57;102749.22;2007003;27;2750679;-75
2024/02/18 11:41:57;;;;;;;;;8.00;6.00;;;;;15.57;52.20;102755.66;2008427;28;2746150;-76
2024/02/18 11:43:09;;;;;;;;;7.33;4.67;;;;;15.41;52.98;102746.28;2036487;28;2754491;-76
2024/02/18 11:44:19;;;;;;;;;7.00;5.67;;;;;15.27;53.39;102753.63;2010283;28;2746279;-76
2024/02/18 11:45:30;;;;;;;;;5.00;5.00;;;;;15.13;53.58;102752.16;2020304;27;2748197;-76
2024/02/18 11:46:49;;;;;;;;;7.00;6.00;;;;;14.99;53.88;102741.81;2013270;28;2746106;-75
2024/02/18 11:48:02;;;;;;;;;5.33;4.00;;;;;14.88;54.47;102735.88;2031177;28;2744049;-75
2024/02/18 11:49:13;;;;;;;;;5.33;5.00;;;;;14.79;54.39;102734.25;1982594;27;2740977;-75
2024/02/18 11:50:24;;;;;;;;;4.33;4.33;;;;;14.67;54.87;102727.41;2037692;27;2749223;-73
2024/02/18 11:51:36;;;;;;;;;8.33;7.00;;;;;14.56;54.98;102719.66;2031569;27;2740953;-75
2024/02/18 11:52:48;;;;;;;;;7.67;6.67;;;;;14.46;55.27;102711.00;2009559;28;2746141;-75
2024/02/18 11:53:58;;;;;;;;;8.67;5.33;;;;;14.38;55.49;102705.84;2014036;28;2746104;-75
2024/02/18 11:55:15;;;;;;;;;7.67;7.67;;;;;14.31;56.18;102714.81;2030329;28;3456483;-75
2024/02/18 11:56:26;;;;;;;;;6.67;6.67;;;;;14.21;56.19;102722.91;2022067;28;1816953;-75
2024/02/18 11:57:37;;;;;;;;;8.00;4.67;;;;;14.11;56.52;102722.16;1992051;27;3456519;-74
2024/02/18 11:58:48;;;;;;;;;5.67;5.00;;;;;14.05;56.79;102717.00;2008674;28;2749247;-75
2024/02/18 11:59:58;;;;;;;;;9.67;8.00;;;;;14.01;57.08;102713.50;2000636;27;2755513;-75
2024/02/18 12:01:10;;;;;;;;;8.67;7.67;;;;;13.95;57.36;102717.13;2031669;28;2747167;-75
2024/02/18 12:02:22;;;;;;;;;6.00;5.00;;;;;13.90;57.66;102718.94;1981821;27;2752440;-75
2024/02/18 12:03:33;;;;;;;;;12.33;10.33;;;;;13.84;57.77;102722.59;2003931;28;3505506;-74
2024/02/18 12:04:48;;;;;;;;;7.67;6.67;;;;;13.78;57.93;102725.31;2032102;28;2741999;-75
2024/02/18 12:06:00;;;;;;;;;8.67;8.00;;;;;13.76;57.98;102739.44;2001537;28;1830462;-75
2024/02/18 12:07:11;;;;;;;;;7.67;7.00;;;;;13.70;58.44;102738.63;1988339;28;2748206;-75
2024/02/18 12:08:21;;;;;;;;;9.67;7.67;;;;;13.69;58.98;102736.00;2016929;28;2753432;-75
2024/02/18 12:09:32;;;;;;;;;10.33;9.00;;;;;13.65;58.84;102739.59;2012654;28;2751685;-75
2024/02/18 12:10:43;;;;;;;;;10.33;8.67;;;;;13.60;58.95;102739.66;2014587;28;2759670;-76
2024/02/18 12:11:54;;;;;;;;;9.67;7.33;;;;;13.58;59.49;102733.53;2018183;28;2756510;-75
2024/02/18 12:13:06;;;;;;;;;7.00;5.67;;;;;13.54;59.16;102729.13;2018733;27;2743000;-75
2024/02/18 12:14:20;;;;;;;;;7.33;7.33;;;;;13.50;59.61;102728.31;2003377;27;3465193;-76
2024/02/18 12:15:30;;;;;;;;;10.00;8.00;;;;;13.48;59.55;102728.31;1995034;28;2751359;-76
2024/02/18 12:16:45;;;;;;;;;7.67;5.00;;;;;13.45;59.90;102733.66;2023929;28;2740956;-75
2024/02/18 12:18:02;;;;;;;;;4.33;4.33;;;;;13.43;60.06;102730.19;2067798;27;2737758;-75
2024/02/18 12:19:15;;;;;;;;;10.83;7.83;;;;;13.41;60.65;102731.09;2002095;28;2765238;-75
2024/02/18 12:20:31;;;;;;;;;6.67;6.00;;;;;13.38;60.23;102732.84;2008039;28;2747139;-75
2024/02/18 12:21:53;;;;;;;;;8.17;7.17;;;;;13.38;60.31;102738.13;2011045;28;2747195;-76
2024/02/18 12:23:06;;;;;;;;;8.00;6.33;;;;;13.35;60.86;102738.19;1984098;28;2748296;-75
2024/02/18 12:24:20;;;;;;;;;7.50;6.67;;;;;13.32;60.46;102745.25;2030615;27;2748736;-75
2024/02/18 12:25:37;;;;;;;;;10.33;6.33;;;;;13.30;60.39;102747.94;2005813;27;3486691;-76
2024/02/18 12:26:48;;;;;;;;;9.67;8.67;;;;;13.27;60.78;102743.56;2004709;28;3469021;-75
2024/02/18 12:27:59;;;;;;;;;8.67;8.67;;;;;13.26;61.05;102744.44;2013201;28;2743695;-75
2024/02/18 12:29:10;;;;;;;;;7.00;7.00;;;;;13.25;61.14;102742.72;2020574;28;2746615;-75
2024/02/18 12:30:24;;;;;;;;;8.83;7.83;;;;;13.22;61.63;102737.47;2031173;28;2746244;-75
2024/02/18 12:31:35;;;;;;;;;9.00;7.67;;;;;13.24;61.45;102748.88;2002870;27;2742977;-75
2024/02/18 12:32:46;;;;;;;;;7.33;7.33;;;;;13.20;61.72;102736.63;2003943;28;3460653;-76
2024/02/18 12:33:57;;;;;;;;;7.33;7.33;;;;;13.18;61.43;102734.88;2006989;28;3460688;-75
2024/02/18 12:35:10;;;;;;;;;9.60;8.20;;;;;13.21;61.79;102746.25;2019784;28;2739848;-75
2024/02/18 12:36:20;;;;;;;;;7.33;4.00;;;;;13.18;62.13;102743.69;1984107;27;3457548;-75
2024/02/18 12:37:32;;;;;;;;;5.00;3.67;;;;;13.20;62.39;102744.53;2024455;28;2754471;-75
2024/02/18 12:38:42;;;;;;;;;9.00;9.00;;;;;13.16;62.04;102741.03;2006761;28;2744085;-75
2024/02/18 12:39:54;;;;;;;;;8.33;5.00;;;;;13.15;62.36;102730.50;2023747;28;2756097;-76
2024/02/18 12:41:05;;;;;;;;;8.00;7.67;;;;;13.15;62.25;102741.06;1992803;28;2748188;-75
2024/02/18 12:42:16;;;;;;;;;7.67;5.00;;;;;13.15;62.21;102738.44;2007189;27;2750860;-76
2024/02/18 12:43:28;;;;;;;;;5.00;4.33;;;;;13.17;62.35;102744.56;2013383;28;2751374;-75
2024/02/18 12:44:41;;;;;;;;;6.67;6.67;;;;;13.11;62.73;102734.94;2029869;28;2746126;-75
2024/02/18 12:45:55;;;;;;;;;8.17;4.33;;;;;13.10;62.91;102735.84;2010483;28;2743024;-76
2024/02/18 12:47:05;;;;;;;;;8.33;4.33;;;;;13.08;62.54;102729.72;1985369;28;2741466;-75
2024/02/18 12:48:16;;;;;;;;;5.67;5.67;;;;;13.07;63.17;102714.75;2022153;28;2745160;-76
2024/02/18 12:49:31;;;;;;;;;7.33;4.67;;;;;13.07;63.34;102714.75;2016319;27;2752453;-75
2024/02/18 12:51:06;;;;;;;;;6.00;4.67;;;;;13.02;63.06;102704.25;2032173;28;2748241;-75
2024/02/18 12:52:20;;;;;;;;;4.83;4.83;;;;;13.03;63.38;102698.09;1996237;28;2746087;-75
2024/02/18 12:53:30;;;;;;;;;6.33;5.67;;;;;13.00;63.54;102692.84;1973037;27;2752384;-75
2024/02/18 12:54:41;;;;;;;;;4.67;3.67;;;;;12.99;63.62;102701.63;2032304;27;2748277;-75
2024/02/18 12:55:55;;;;;;;;;5.33;5.33;;;;;13.00;63.57;102699.88;2042254;27;2746169;-76
2024/02/18 12:57:06;;;;;;;;;8.00;7.33;;;;;12.99;63.64;102700.78;1976027;28;3455520;-75
2024/02/18 12:58:19;;;;;;;;;5.00;3.67;;;;;12.99;63.82;102698.16;2015074;27;2751295;-75
2024/02/18 12:59:34;;;;;;;;;5.00;4.67;;;;;13.00;63.86;102711.31;2018614;27;2744065;-75
2024/02/18 13:00:47;;;;;;;;;6.33;5.00;;;;;13.02;63.71;102712.16;2004181;28;2746138;-76
2024/02/18 13:02:02;;;;;;;;;7.83;6.17;;;;;13.01;63.97;102718.31;2010009;28;2746156;-75
2024/02/18 13:03:18;;;;;;;;;4.50;3.83;;;;;12.99;64.09;102722.75;2011001;28;2744059;-74
2024/02/18 13:04:29;;;;;;;;;4.00;4.00;;;;;12.99;63.97;102716.63;1985554;28;2754457;-75
2024/02/18 13:05:42;;;;;;;;;5.00;5.00;;;;;13.00;64.05;102718.34;2025643;28;2741971;-75
2024/02/18 13:06:57;;;;;;;;;7.83;7.33;;;;;12.99;64.41;102720.13;2017661;28;2743002;-75
2024/02/18 13:08:07;;;;;;;;;5.67;5.00;;;;;13.02;64.37;102721.84;1967324;27;3463824;-75
2024/02/18 13:09:26;;;;;;;;;8.33;7.67;;;;;12.98;63.99;102715.75;1999597;28;3467981;-75
2024/02/18 13:10:39;;;;;;;;;7.83;6.33;;;;;13.00;64.14;102716.59;2025239;28;2750311;-75
2024/02/18 13:11:52;;;;;;;;;9.50;6.33;;;;;12.98;64.67;102707.81;2011210;28;2745079;-75
2024/02/18 13:13:03;;;;;;;;;13.00;9.00;;;;;12.97;64.48;102700.78;1981601;28;2768515;-75
2024/02/18 13:14:15;;;;;;;;;10.00;10.00;;;;;12.96;64.47;102706.09;2034120;28;1830038;-75
2024/02/18 13:15:25;;;;;;;;;4.33;4.33;;;;;12.93;65.28;102701.72;2007385;28;2752890;-75
2024/02/18 13:16:36;;;;;;;;;6.33;6.33;;;;;12.91;64.71;102703.50;2025416;27;2737827;-75
2024/02/18 13:17:51;;;;;;;;;4.50;4.50;;;;;12.93;65.02;102707.00;2004220;28;2747176;-75
2024/02/18 13:19:04;;;;;;;;;7.33;5.33;;;;;12.87;64.88;102702.66;2003850;28;2745049;-75
2024/02/18 13:20:14;;;;;;;;;5.67;4.33;;;;;12.83;65.24;102693.91;1980795;27;2749375;-75
2024/02/18 13:21:26;;;;;;;;;8.33;4.33;;;;;12.83;65.51;102701.84;2018978;28;2754432;-75
2024/02/18 13:22:39;;;;;;;;;7.83;5.50;;;;;12.86;65.36;102698.28;2032130;28;2740917;-75
2024/02/18 13:23:52;;;;;;;;;4.33;4.33;;;;;12.85;65.54;102696.53;2007405;27;2749325;-75
2024/02/18 13:25:08;;;;;;;;;7.00;5.00;;;;;12.86;65.55;102705.31;2011141;27;2747174;-75
2024/02/18 13:26:21;;;;;;;;;5.67;5.67;;;;;12.83;65.93;102701.84;2008886;28;2745442;-75
2024/02/18 13:27:34;;;;;;;;;6.50;5.50;;;;;12.82;65.55;102697.44;2002576;27;2743054;-75
2024/02/18 13:28:45;;;;;;;;;6.33;6.33;;;;;12.86;65.40;102710.59;1977813;28;2746143;-75
2024/02/18 13:29:56;;;;;;;;;7.00;5.67;;;;;12.82;65.83;102696.56;2024264;28;2746083;-76
2024/02/18 13:31:08;;;;;;;;;6.00;4.00;;;;;12.84;66.13;102700.03;2019599;28;2750274;-75
2024/02/18 13:32:21;;;;;;;;;7.83;6.17;;;;;12.81;65.67;102698.34;2030145;28;2745097;-75
2024/02/18 13:33:34;;;;;;;;;11.67;8.50;;;;;12.83;66.06;102706.22;2003037;28;2749263;-75
2024/02/18 13:34:45;;;;;;;;;5.33;4.00;;;;;12.85;66.31;102699.16;1981106;27;2728426;-75
2024/02/18 13:35:56;;;;;;;;;7.33;5.67;;;;;12.91;66.05;102703.50;2023183;28;2746142;-75
2024/02/18 13:37:07;;;;;;;;;5.67;5.67;;;;;12.91;66.03;102708.78;2019457;28;2747158;-75
2024/02/18 13:38:18;;;;;;;;;5.50;5.50;;;;;12.88;65.92;102698.25;2037729;27;2748239;-75
2024/02/18 13:39:29;;;;;;;;;4.67;3.33;;;;;12.86;65.95;102700.94;1997120;27;2750320;-75
2024/02/18 13:40:40;;;;;;;;;4.67;4.00;;;;;12.86;65.85;102693.00;2013834;28;3457561;-75
2024/02/18 13:41:51;;;;;;;;;9.00;4.00;;;;;12.88;66.11;102700.91;2019104;28;2752403;-75
2024/02/18 13:43:03;;;;;;;;;4.50;4.50;;;;;12.88;66.28;102700.91;2030724;28;2742998;-75
2024/02/18 13:44:16;;;;;;;;;6.50;6.50;;;;;12.90;65.96;102702.63;2029742;28;2750302;-75
2024/02/18 13:45:27;;;;;;;;;3.33;3.33;;;;;12.90;66.24;102697.34;1970209;28;2746098;-75
2024/02/18 13:46:40;;;;;;;;;4.00;4.00;;;;;12.93;66.27;102694.69;2025655;28;2748207;-74
2024/02/18 13:47:54;;;;;;;;;4.00;4.00;;;;;12.93;66.39;102699.97;1998174;28;2754416;-75
2024/02/18 13:49:04;;;;;;;;;8.67;4.00;;;;;12.94;66.77;102712.25;1997820;28;2752439;-75
2024/02/18 13:50:15;;;;;;;;;4.00;4.00;;;;;12.93;66.42;102692.03;2016158;28;2750304;-75
2024/02/18 13:51:26;;;;;;;;;6.67;6.67;;;;;12.94;66.29;102704.34;2023688;27;2748165;-75
2024/02/18 13:52:39;;;;;;;;;3.17;2.83;;;;;12.94;66.67;102692.91;2011686;28;2746104;-75
2024/02/18 13:53:53;;;;;;;;;6.50;5.17;;;;;12.96;66.07;102685.84;2010599;28;2746170;-75
2024/02/18 13:55:07;;;;;;;;;4.17;4.00;;;;;12.98;66.64;102678.78;2008845;28;2748254;-75
2024/02/18 13:56:20;;;;;;;;;3.67;3.50;;;;;12.96;66.46;102677.94;2007841;27;2737765;-75
2024/02/18 13:57:30;;;;;;;;;4.00;4.00;;;;;12.99;66.77;102680.53;1979841;27;2752364;-75
2024/02/18 13:58:41;;;;;;;;;8.33;8.33;;;;;13.00;66.95;102676.13;2025182;28;2754535;-75
2024/02/18 13:59:56;;;;;;;;;6.00;5.20;;;;;13.02;66.56;102680.50;2030649;28;2737867;-75
2024/02/18 14:01:09;;;;;;;;;4.67;4.67;;;;;13.03;66.70;102669.06;2017482;27;2748171;-75
2024/02/18 14:02:22;;;;;;;;;4.50;4.00;;;;;13.04;66.87;102667.25;2037998;28;2745071;-75
2024/02/18 14:03:35;;;;;;;;;6.33;4.50;;;;;13.05;66.88;102672.53;2014984;28;2737809;-75
2024/02/18 14:04:46;;;;;;;;;8.67;6.00;;;;;13.08;66.68;102679.56;1983729;28;3464819;-75
2024/02/18 14:05:58;;;;;;;;;4.00;4.00;;;;;13.05;67.04;102675.19;2030734;28;2736735;-76
2024/02/18 14:07:11;;;;;;;;;9.00;7.17;;;;;13.11;67.02;102682.13;2025784;27;2756575;-75
2024/02/18 14:08:21;;;;;;;;;8.33;8.33;;;;;13.09;67.06;102675.16;1972879;28;3453487;-75
2024/02/18 14:09:33;;;;;;;;;7.67;7.67;;;;;13.12;67.14;102675.97;2022602;28;2740946;-75
2024/02/18 14:10:46;;;;;;;;;5.67;5.67;;;;;13.13;67.23;102667.19;2005602;28;2746137;-75
2024/02/18 14:11:59;;;;;;;;;8.00;7.33;;;;;13.16;67.06;102672.38;2010982;28;2742993;-75
2024/02/18 14:13:13;;;;;;;;;6.50;5.33;;;;;13.15;67.11;102667.13;2007840;28;2748187;-75
2024/02/18 14:14:26;;;;;;;;;4.17;4.17;;;;;13.15;67.04;102660.09;2016066;28;2741996;-75